sensor_id;sensor_type;location;lat;lon;timestamp;temperature;humidity
75153;HTU21D;63734;45.218;36.708;2023-02-01T00:01:20;1.17;107.37
75153;HTU21D;63734;45.218;36.708;2023-02-01T00:03:46;1.17;107.33
75153;HTU21D;63734;45.218;36.708;2023-02-01T00:06:12;1.23;107.13
75153;HTU21D;63734;45.218;36.708;2023-02-01T00:08:38;1.23;106.90
75153;HTU21D;63734;45.218;36.708;2023-02-01T00:11:09;1.25;107.02
75153;HTU21D;63734;45.218;36.708;2023-02-01T00:13:41;1.24;106.85
75153;HTU21D;63734;45.218;36.708;2023-02-01T00:16:18;1.19;106.87
75153;HTU21D;63734;45.218;36.708;2023-02-01T00:18:46;1.24;107.01
75153;HTU21D;63734;45.218;36.708;2023-02-01T00:21:17;1.26;106.79
75153;HTU21D;63734;45.218;36.708;2023-02-01T00:23:44;1.24;106.86
75153;HTU21D;63734;45.218;36.708;2023-02-01T00:26:23;1.28;106.74
75153;HTU21D;63734;45.218;36.708;2023-02-01T00:28:51;1.33;106.79
75153;HTU21D;63734;45.218;36.708;2023-02-01T00:31:17;1.35;106.63
75153;HTU21D;63734;45.218;36.708;2023-02-01T00:33:46;1.36;106.60
75153;HTU21D;63734;45.218;36.708;2023-02-01T00:36:13;1.36;106.58
75153;HTU21D;63734;45.218;36.708;2023-02-01T00:38:39;1.34;106.58
75153;HTU21D;63734;45.218;36.708;2023-02-01T00:41:13;1.34;106.61
75153;HTU21D;63734;45.218;36.708;2023-02-01T00:43:40;1.37;106.59
75153;HTU21D;63734;45.218;36.708;2023-02-01T00:46:07;1.41;106.50
75153;HTU21D;63734;45.218;36.708;2023-02-01T00:48:33;1.42;106.38
75153;HTU21D;63734;45.218;36.708;2023-02-01T00:51:04;1.46;106.23
75153;HTU21D;63734;45.218;36.708;2023-02-01T00:53:32;1.51;106.27
75153;HTU21D;63734;45.218;36.708;2023-02-01T00:55:58;1.55;106.16
75153;HTU21D;63734;45.218;36.708;2023-02-01T00:58:26;1.56;105.95
75153;HTU21D;63734;45.218;36.708;2023-02-01T01:03:28;1.54;105.92
75153;HTU21D;63734;45.218;36.708;2023-02-01T01:05:56;1.49;105.77
75153;HTU21D;63734;45.218;36.708;2023-02-01T01:08:23;1.41;105.85
75153;HTU21D;63734;45.218;36.708;2023-02-01T01:10:49;1.40;106.05
75153;HTU21D;63734;45.218;36.708;2023-02-01T01:13:16;1.35;105.87
75153;HTU21D;63734;45.218;36.708;2023-02-01T01:15:42;1.32;105.95
75153;HTU21D;63734;45.218;36.708;2023-02-01T01:18:08;1.32;106.04
75153;HTU21D;63734;45.218;36.708;2023-02-01T01:20:36;1.31;105.95
75153;HTU21D;63734;45.218;36.708;2023-02-01T01:23:03;1.28;106.02
75153;HTU21D;63734;45.218;36.708;2023-02-01T01:25:29;1.33;106.00
75153;HTU21D;63734;45.218;36.708;2023-02-01T01:27:55;1.37;105.97
75153;HTU21D;63734;45.218;36.708;2023-02-01T01:30:21;1.40;105.77
75153;HTU21D;63734;45.218;36.708;2023-02-01T01:32:47;1.38;105.77
75153;HTU21D;63734;45.218;36.708;2023-02-01T01:35:13;1.31;105.62
75153;HTU21D;63734;45.218;36.708;2023-02-01T01:37:39;1.23;105.79
75153;HTU21D;63734;45.218;36.708;2023-02-01T01:40:07;1.23;105.87
75153;HTU21D;63734;45.218;36.708;2023-02-01T01:42:41;1.17;105.89
75153;HTU21D;63734;45.218;36.708;2023-02-01T01:45:26;1.14;105.98
75153;HTU21D;63734;45.218;36.708;2023-02-01T01:48:05;1.10;106.01
75153;HTU21D;63734;45.218;36.708;2023-02-01T01:50:46;1.03;106.05
75153;HTU21D;63734;45.218;36.708;2023-02-01T01:53:25;0.98;106.34
75153;HTU21D;63734;45.218;36.708;2023-02-01T01:55:54;0.94;106.47
75153;HTU21D;63734;45.218;36.708;2023-02-01T01:58:24;0.92;106.72
75153;HTU21D;63734;45.218;36.708;2023-02-01T02:00:52;0.91;106.98
75153;HTU21D;63734;45.218;36.708;2023-02-01T02:03:42;0.86;107.16
75153;HTU21D;63734;45.218;36.708;2023-02-01T02:07:14;0.80;107.43
75153;HTU21D;63734;45.218;36.708;2023-02-01T02:09:14;0.77;107.70
75153;HTU21D;63734;45.218;36.708;2023-02-01T02:11:40;0.79;107.88
75153;HTU21D;63734;45.218;36.708;2023-02-01T02:14:09;0.83;108.07
75153;HTU21D;63734;45.218;36.708;2023-02-01T02:22:42;1.04;108.21
75153;HTU21D;63734;45.218;36.708;2023-02-01T02:30:44;1.17;108.23
75153;HTU21D;63734;45.218;36.708;2023-02-01T02:36:02;1.22;108.30
75153;HTU21D;63734;45.218;36.708;2023-02-01T02:38:52;1.23;108.30
75153;HTU21D;63734;45.218;36.708;2023-02-01T02:44:25;1.27;108.27
75153;HTU21D;63734;45.218;36.708;2023-02-01T02:47:39;1.27;108.29
75153;HTU21D;63734;45.218;36.708;2023-02-01T02:53:17;1.22;108.26
75153;HTU21D;63734;45.218;36.708;2023-02-01T02:56:03;1.21;108.25
75153;HTU21D;63734;45.218;36.708;2023-02-01T02:58:50;1.20;108.20
75153;HTU21D;63734;45.218;36.708;2023-02-01T03:01:37;1.20;108.16
75153;HTU21D;63734;45.218;36.708;2023-02-01T03:04:22;1.20;108.11
75153;HTU21D;63734;45.218;36.708;2023-02-01T03:06:49;1.18;108.04
75153;HTU21D;63734;45.218;36.708;2023-02-01T03:09:35;1.17;108.02
75153;HTU21D;63734;45.218;36.708;2023-02-01T03:12:09;1.16;107.99
75153;HTU21D;63734;45.218;36.708;2023-02-01T03:15:03;1.13;107.99
75153;HTU21D;63734;45.218;36.708;2023-02-01T03:17:35;1.13;107.98
75153;HTU21D;63734;45.218;36.708;2023-02-01T03:20:06;1.13;107.96
75153;HTU21D;63734;45.218;36.708;2023-02-01T03:22:33;1.14;107.98
75153;HTU21D;63734;45.218;36.708;2023-02-01T03:25:10;1.19;107.95
75153;HTU21D;63734;45.218;36.708;2023-02-01T03:27:55;1.24;107.88
75153;HTU21D;63734;45.218;36.708;2023-02-01T03:30:26;1.25;107.71
75153;HTU21D;63734;45.218;36.708;2023-02-01T03:32:56;1.27;107.69
75153;HTU21D;63734;45.218;36.708;2023-02-01T03:35:45;1.29;107.56
75153;HTU21D;63734;45.218;36.708;2023-02-01T03:44:09;1.25;107.57
75153;HTU21D;63734;45.218;36.708;2023-02-01T03:46:41;1.26;107.51
75153;HTU21D;63734;45.218;36.708;2023-02-01T03:49:26;1.25;107.48
75153;HTU21D;63734;45.218;36.708;2023-02-01T03:51:54;1.22;107.55
75153;HTU21D;63734;45.218;36.708;2023-02-01T03:54:22;1.20;107.67
75153;HTU21D;63734;45.218;36.708;2023-02-01T03:56:50;1.19;107.83
75153;HTU21D;63734;45.218;36.708;2023-02-01T03:59:17;1.19;107.91
75153;HTU21D;63734;45.218;36.708;2023-02-01T04:01:43;1.22;108.00
75153;HTU21D;63734;45.218;36.708;2023-02-01T04:04:10;1.23;108.07
75153;HTU21D;63734;45.218;36.708;2023-02-01T04:06:37;1.24;108.08
75153;HTU21D;63734;45.218;36.708;2023-02-01T04:09:04;1.27;108.10
75153;HTU21D;63734;45.218;36.708;2023-02-01T04:11:30;1.29;108.04
75153;HTU21D;63734;45.218;36.708;2023-02-01T04:13:56;1.29;108.00
75153;HTU21D;63734;45.218;36.708;2023-02-01T04:16:22;1.26;107.98
75153;HTU21D;63734;45.218;36.708;2023-02-01T04:18:48;1.24;107.99
75153;HTU21D;63734;45.218;36.708;2023-02-01T04:21:14;1.22;107.96
75153;HTU21D;63734;45.218;36.708;2023-02-01T04:23:40;1.21;108.01
75153;HTU21D;63734;45.218;36.708;2023-02-01T04:26:06;1.20;107.99
75153;HTU21D;63734;45.218;36.708;2023-02-01T04:28:32;1.17;107.95
75153;HTU21D;63734;45.218;36.708;2023-02-01T04:30:58;1.16;108.01
75153;HTU21D;63734;45.218;36.708;2023-02-01T04:33:25;1.11;107.95
75153;HTU21D;63734;45.218;36.708;2023-02-01T04:35:50;1.10;107.98
75153;HTU21D;63734;45.218;36.708;2023-02-01T04:38:17;1.10;107.91
75153;HTU21D;63734;45.218;36.708;2023-02-01T04:40:43;1.07;107.91
75153;HTU21D;63734;45.218;36.708;2023-02-01T04:43:09;1.06;107.90
75153;HTU21D;63734;45.218;36.708;2023-02-01T04:45:35;1.07;107.89
75153;HTU21D;63734;45.218;36.708;2023-02-01T04:48:01;1.12;107.86
75153;HTU21D;63734;45.218;36.708;2023-02-01T04:50:27;1.16;107.74
75153;HTU21D;63734;45.218;36.708;2023-02-01T04:52:52;1.18;107.60
75153;HTU21D;63734;45.218;36.708;2023-02-01T04:55:18;1.21;107.51
75153;HTU21D;63734;45.218;36.708;2023-02-01T04:57:44;1.22;107.51
75153;HTU21D;63734;45.218;36.708;2023-02-01T05:00:11;1.23;107.50
75153;HTU21D;63734;45.218;36.708;2023-02-01T05:02:38;1.26;107.49
75153;HTU21D;63734;45.218;36.708;2023-02-01T05:05:05;1.31;107.39
75153;HTU21D;63734;45.218;36.708;2023-02-01T05:07:31;1.37;107.44
75153;HTU21D;63734;45.218;36.708;2023-02-01T05:09:57;1.50;107.39
75153;HTU21D;63734;45.218;36.708;2023-02-01T05:12:22;1.67;107.37
75153;HTU21D;63734;45.218;36.708;2023-02-01T05:15:07;1.91;107.14
75153;HTU21D;63734;45.218;36.708;2023-02-01T05:17:33;2.09;106.82
75153;HTU21D;63734;45.218;36.708;2023-02-01T05:19:59;2.25;106.45
75153;HTU21D;63734;45.218;36.708;2023-02-01T05:22:25;2.34;106.07
75153;HTU21D;63734;45.218;36.708;2023-02-01T05:24:51;2.36;105.89
75153;HTU21D;63734;45.218;36.708;2023-02-01T05:27:16;2.40;105.92
75153;HTU21D;63734;45.218;36.708;2023-02-01T05:29:42;2.57;106.01
75153;HTU21D;63734;45.218;36.708;2023-02-01T05:32:09;2.79;105.85
75153;HTU21D;63734;45.218;36.708;2023-02-01T05:34:36;2.96;105.36
75153;HTU21D;63734;45.218;36.708;2023-02-01T05:37:02;3.14;105.17
75153;HTU21D;63734;45.218;36.708;2023-02-01T05:39:28;3.39;104.78
75153;HTU21D;63734;45.218;36.708;2023-02-01T05:41:54;3.60;104.38
75153;HTU21D;63734;45.218;36.708;2023-02-01T05:44:20;3.86;103.82
75153;HTU21D;63734;45.218;36.708;2023-02-01T05:46:46;4.06;103.23
75153;HTU21D;63734;45.218;36.708;2023-02-01T05:49:12;4.12;102.91
75153;HTU21D;63734;45.218;36.708;2023-02-01T05:51:38;4.03;102.96
75153;HTU21D;63734;45.218;36.708;2023-02-01T05:54:04;3.88;103.04
75153;HTU21D;63734;45.218;36.708;2023-02-01T05:56:30;3.73;103.21
75153;HTU21D;63734;45.218;36.708;2023-02-01T05:58:56;3.65;103.67
75153;HTU21D;63734;45.218;36.708;2023-02-01T06:01:21;3.70;104.21
75153;HTU21D;63734;45.218;36.708;2023-02-01T06:03:47;3.76;104.44
75153;HTU21D;63734;45.218;36.708;2023-02-01T06:06:13;3.87;104.60
75153;HTU21D;63734;45.218;36.708;2023-02-01T06:08:39;4.12;104.50
75153;HTU21D;63734;45.218;36.708;2023-02-01T06:11:06;4.30;103.93
75153;HTU21D;63734;45.218;36.708;2023-02-01T06:13:32;4.48;103.76
75153;HTU21D;63734;45.218;36.708;2023-02-01T06:15:58;4.59;103.28
75153;HTU21D;63734;45.218;36.708;2023-02-01T06:18:25;4.46;102.15
75153;HTU21D;63734;45.218;36.708;2023-02-01T06:20:58;4.12;101.66
75153;HTU21D;63734;45.218;36.708;2023-02-01T06:23:26;3.83;101.73
75153;HTU21D;63734;45.218;36.708;2023-02-01T06:26:12;3.57;102.10
75153;HTU21D;63734;45.218;36.708;2023-02-01T06:28:38;3.41;102.33
75153;HTU21D;63734;45.218;36.708;2023-02-01T06:31:06;3.24;102.62
75153;HTU21D;63734;45.218;36.708;2023-02-01T06:33:33;3.13;102.80
75153;HTU21D;63734;45.218;36.708;2023-02-01T06:36:01;3.05;102.95
75153;HTU21D;63734;45.218;36.708;2023-02-01T06:38:29;2.97;103.00
75153;HTU21D;63734;45.218;36.708;2023-02-01T06:40:56;2.81;103.05
75153;HTU21D;63734;45.218;36.708;2023-02-01T06:43:24;2.71;103.23
75153;HTU21D;63734;45.218;36.708;2023-02-01T06:45:51;2.60;103.30
75153;HTU21D;63734;45.218;36.708;2023-02-01T06:48:17;2.50;103.45
75153;HTU21D;63734;45.218;36.708;2023-02-01T06:50:43;2.42;103.59
75153;HTU21D;63734;45.218;36.708;2023-02-01T06:53:10;2.40;103.76
75153;HTU21D;63734;45.218;36.708;2023-02-01T06:55:36;2.39;103.79
75153;HTU21D;63734;45.218;36.708;2023-02-01T06:58:02;2.41;103.89
75153;HTU21D;63734;45.218;36.708;2023-02-01T07:00:29;2.46;103.83
75153;HTU21D;63734;45.218;36.708;2023-02-01T07:02:56;2.51;103.73
75153;HTU21D;63734;45.218;36.708;2023-02-01T07:05:23;2.53;103.66
75153;HTU21D;63734;45.218;36.708;2023-02-01T07:07:49;2.53;103.66
75153;HTU21D;63734;45.218;36.708;2023-02-01T07:10:15;2.54;103.73
75153;HTU21D;63734;45.218;36.708;2023-02-01T07:12:41;2.56;103.76
75153;HTU21D;63734;45.218;36.708;2023-02-01T07:15:07;2.59;103.82
75153;HTU21D;63734;45.218;36.708;2023-02-01T07:17:33;2.64;103.77
75153;HTU21D;63734;45.218;36.708;2023-02-01T07:19:59;2.67;103.85
75153;HTU21D;63734;45.218;36.708;2023-02-01T07:22:27;2.65;103.91
75153;HTU21D;63734;45.218;36.708;2023-02-01T07:24:53;2.66;104.06
75153;HTU21D;63734;45.218;36.708;2023-02-01T07:27:19;2.68;104.04
75153;HTU21D;63734;45.218;36.708;2023-02-01T07:29:45;2.60;103.58
75153;HTU21D;63734;45.218;36.708;2023-02-01T07:32:11;2.54;103.46
75153;HTU21D;63734;45.218;36.708;2023-02-01T07:34:37;2.50;103.44
75153;HTU21D;63734;45.218;36.708;2023-02-01T07:37:03;2.45;103.41
75153;HTU21D;63734;45.218;36.708;2023-02-01T07:39:29;2.44;103.24
75153;HTU21D;63734;45.218;36.708;2023-02-01T07:41:57;2.42;103.05
75153;HTU21D;63734;45.218;36.708;2023-02-01T07:44:23;2.43;102.93
75153;HTU21D;63734;45.218;36.708;2023-02-01T07:46:50;2.41;102.31
75153;HTU21D;63734;45.218;36.708;2023-02-01T07:49:16;2.38;101.64
75153;HTU21D;63734;45.218;36.708;2023-02-01T07:51:43;2.38;101.22
75153;HTU21D;63734;45.218;36.708;2023-02-01T07:54:09;2.39;101.12
75153;HTU21D;63734;45.218;36.708;2023-02-01T07:56:35;2.39;100.64
75153;HTU21D;63734;45.218;36.708;2023-02-01T07:59:01;2.43;100.71
75153;HTU21D;63734;45.218;36.708;2023-02-01T08:01:28;2.41;100.12
75153;HTU21D;63734;45.218;36.708;2023-02-01T08:03:56;2.36;99.67
75153;HTU21D;63734;45.218;36.708;2023-02-01T08:06:27;2.37;99.81
75153;HTU21D;63734;45.218;36.708;2023-02-01T08:08:54;2.37;99.68
75153;HTU21D;63734;45.218;36.708;2023-02-01T08:11:21;2.35;99.52
75153;HTU21D;63734;45.218;36.708;2023-02-01T08:13:48;2.36;99.49
75153;HTU21D;63734;45.218;36.708;2023-02-01T08:16:15;2.38;99.48
75153;HTU21D;63734;45.218;36.708;2023-02-01T08:18:42;2.36;99.18
75153;HTU21D;63734;45.218;36.708;2023-02-01T08:21:10;2.35;98.93
75153;HTU21D;63734;45.218;36.708;2023-02-01T08:23:37;2.35;98.39
75153;HTU21D;63734;45.218;36.708;2023-02-01T08:28:33;2.44;98.61
75153;HTU21D;63734;45.218;36.708;2023-02-01T08:31:04;2.49;98.26
75153;HTU21D;63734;45.218;36.708;2023-02-01T08:33:30;2.45;97.58
75153;HTU21D;63734;45.218;36.708;2023-02-01T08:35:56;2.36;97.19
75153;HTU21D;63734;45.218;36.708;2023-02-01T08:38:22;2.30;97.08
75153;HTU21D;63734;45.218;36.708;2023-02-01T08:40:48;2.25;96.92
75153;HTU21D;63734;45.218;36.708;2023-02-01T08:43:14;2.19;97.16
75153;HTU21D;63734;45.218;36.708;2023-02-01T08:45:40;2.20;97.32
75153;HTU21D;63734;45.218;36.708;2023-02-01T08:48:06;2.15;97.18
75153;HTU21D;63734;45.218;36.708;2023-02-01T08:50:32;2.11;97.02
75153;HTU21D;63734;45.218;36.708;2023-02-01T08:52:58;2.07;97.23
75153;HTU21D;63734;45.218;36.708;2023-02-01T08:55:24;2.08;97.48
75153;HTU21D;63734;45.218;36.708;2023-02-01T08:57:50;2.14;97.69
75153;HTU21D;63734;45.218;36.708;2023-02-01T09:00:16;2.17;97.74
75153;HTU21D;63734;45.218;36.708;2023-02-01T09:02:43;2.21;97.70
75153;HTU21D;63734;45.218;36.708;2023-02-01T09:05:09;2.20;97.56
75153;HTU21D;63734;45.218;36.708;2023-02-01T09:07:37;2.20;97.68
75153;HTU21D;63734;45.218;36.708;2023-02-01T09:10:03;2.25;97.78
75153;HTU21D;63734;45.218;36.708;2023-02-01T09:12:31;2.24;97.55
75153;HTU21D;63734;45.218;36.708;2023-02-01T09:14:58;2.16;97.61
75153;HTU21D;63734;45.218;36.708;2023-02-01T09:17:29;2.14;97.85
75153;HTU21D;63734;45.218;36.708;2023-02-01T09:19:55;2.09;97.93
75153;HTU21D;63734;45.218;36.708;2023-02-01T09:22:21;2.01;97.84
75153;HTU21D;63734;45.218;36.708;2023-02-01T09:24:47;1.97;97.97
75153;HTU21D;63734;45.218;36.708;2023-02-01T09:27:13;1.93;98.05
75153;HTU21D;63734;45.218;36.708;2023-02-01T09:29:39;1.92;98.11
75153;HTU21D;63734;45.218;36.708;2023-02-01T09:32:05;1.92;97.75
75153;HTU21D;63734;45.218;36.708;2023-02-01T09:34:34;1.91;97.67
75153;HTU21D;63734;45.218;36.708;2023-02-01T09:37:00;1.88;97.33
75153;HTU21D;63734;45.218;36.708;2023-02-01T09:39:26;1.85;97.07
75153;HTU21D;63734;45.218;36.708;2023-02-01T09:47:26;1.90;97.36
75153;HTU21D;63734;45.218;36.708;2023-02-01T09:50:13;1.92;97.46
75153;HTU21D;63734;45.218;36.708;2023-02-01T09:52:45;1.92;97.55
75153;HTU21D;63734;45.218;36.708;2023-02-01T09:55:31;1.95;97.74
75153;HTU21D;63734;45.218;36.708;2023-02-01T09:58:47;1.98;97.78
75153;HTU21D;63734;45.218;36.708;2023-02-01T10:00:56;1.96;97.84
75153;HTU21D;63734;45.218;36.708;2023-02-01T10:03:30;1.96;98.03
75153;HTU21D;63734;45.218;36.708;2023-02-01T10:06:14;1.98;98.15
75153;HTU21D;63734;45.218;36.708;2023-02-01T10:11:46;2.01;98.31
75153;HTU21D;63734;45.218;36.708;2023-02-01T10:20:07;2.10;98.44
75153;HTU21D;63734;45.218;36.708;2023-02-01T10:22:44;2.16;98.51
75153;HTU21D;63734;45.218;36.708;2023-02-01T10:25:23;2.24;98.39
75153;HTU21D;63734;45.218;36.708;2023-02-01T10:27:51;2.26;98.35
75153;HTU21D;63734;45.218;36.708;2023-02-01T10:30:24;2.29;98.35
75153;HTU21D;63734;45.218;36.708;2023-02-01T10:32:55;2.34;98.29
75153;HTU21D;63734;45.218;36.708;2023-02-01T10:35:29;2.34;98.18
75153;HTU21D;63734;45.218;36.708;2023-02-01T10:38:00;2.32;98.18
75153;HTU21D;63734;45.218;36.708;2023-02-01T10:40:30;2.37;98.19
75153;HTU21D;63734;45.218;36.708;2023-02-01T10:43:01;2.44;98.23
75153;HTU21D;63734;45.218;36.708;2023-02-01T10:45:29;2.50;98.09
75153;HTU21D;63734;45.218;36.708;2023-02-01T10:47:58;2.59;98.00
75153;HTU21D;63734;45.218;36.708;2023-02-01T10:50:34;2.64;97.91
75153;HTU21D;63734;45.218;36.708;2023-02-01T10:53:17;2.72;97.92
75153;HTU21D;63734;45.218;36.708;2023-02-01T10:58:19;2.94;97.82
75153;HTU21D;63734;45.218;36.708;2023-02-01T11:00:54;2.96;97.49
75153;HTU21D;63734;45.218;36.708;2023-02-01T11:09:00;3.26;97.56
75153;HTU21D;63734;45.218;36.708;2023-02-01T11:11:26;3.39;97.45
75153;HTU21D;63734;45.218;36.708;2023-02-01T11:13:56;3.49;97.24
75153;HTU21D;63734;45.218;36.708;2023-02-01T11:16:29;3.59;97.03
75153;HTU21D;63734;45.218;36.708;2023-02-01T11:18:55;3.63;96.98
75153;HTU21D;63734;45.218;36.708;2023-02-01T11:21:24;3.61;96.83
75153;HTU21D;63734;45.218;36.708;2023-02-01T11:23:50;3.57;96.98
75153;HTU21D;63734;45.218;36.708;2023-02-01T11:26:25;3.59;97.14
75153;HTU21D;63734;45.218;36.708;2023-02-01T11:29:02;3.67;96.93
75153;HTU21D;63734;45.218;36.708;2023-02-01T11:31:29;3.74;96.66
75153;HTU21D;63734;45.218;36.708;2023-02-01T11:34:05;3.83;95.78
75153;HTU21D;63734;45.218;36.708;2023-02-01T11:36:32;3.95;95.21
75153;HTU21D;63734;45.218;36.708;2023-02-01T11:44:39;4.05;93.21
75153;HTU21D;63734;45.218;36.708;2023-02-01T11:47:27;4.12;93.04
75153;HTU21D;63734;45.218;36.708;2023-02-01T11:50:12;4.12;92.30
75153;HTU21D;63734;45.218;36.708;2023-02-01T11:53:15;4.10;91.83
75153;HTU21D;63734;45.218;36.708;2023-02-01T11:55:58;4.09;91.23
75153;HTU21D;63734;45.218;36.708;2023-02-01T12:18:02;3.82;91.33
75153;HTU21D;63734;45.218;36.708;2023-02-01T12:20:57;3.90;91.27
75153;HTU21D;63734;45.218;36.708;2023-02-01T12:26:46;3.91;90.66
75153;HTU21D;63734;45.218;36.708;2023-02-01T12:32:09;3.98;90.73
75153;HTU21D;63734;45.218;36.708;2023-02-01T12:43:06;3.82;90.61
75153;HTU21D;63734;45.218;36.708;2023-02-01T12:45:36;3.64;90.21
75153;HTU21D;63734;45.218;36.708;2023-02-01T12:50:55;3.27;90.85
75153;HTU21D;63734;45.218;36.708;2023-02-01T12:53:35;3.10;91.22
75153;HTU21D;63734;45.218;36.708;2023-02-01T12:56:10;3.02;91.75
75153;HTU21D;63734;45.218;36.708;2023-02-01T13:01:37;2.90;92.21
75153;HTU21D;63734;45.218;36.708;2023-02-01T13:04:17;2.87;92.21
75153;HTU21D;63734;45.218;36.708;2023-02-01T13:06:51;2.75;92.01
75153;HTU21D;63734;45.218;36.708;2023-02-01T13:12:07;2.55;92.23
75153;HTU21D;63734;45.218;36.708;2023-02-01T13:14:43;2.45;92.53
75153;HTU21D;63734;45.218;36.708;2023-02-01T13:17:16;2.41;92.80
75153;HTU21D;63734;45.218;36.708;2023-02-01T13:19:53;2.35;93.03
75153;HTU21D;63734;45.218;36.708;2023-02-01T13:22:26;2.29;93.03
75153;HTU21D;63734;45.218;36.708;2023-02-01T13:24:55;2.32;93.18
75153;HTU21D;63734;45.218;36.708;2023-02-01T13:27:26;2.28;92.98
75153;HTU21D;63734;45.218;36.708;2023-02-01T13:39:02;2.27;93.79
75153;HTU21D;63734;45.218;36.708;2023-02-01T13:47:00;2.23;94.29
75153;HTU21D;63734;45.218;36.708;2023-02-01T13:49:33;2.23;94.14
75153;HTU21D;63734;45.218;36.708;2023-02-01T13:52:03;2.20;94.11
75153;HTU21D;63734;45.218;36.708;2023-02-01T13:54:38;2.20;94.11
75153;HTU21D;63734;45.218;36.708;2023-02-01T13:57:37;2.15;93.79
75153;HTU21D;63734;45.218;36.708;2023-02-01T14:00:30;2.08;93.84
75153;HTU21D;63734;45.218;36.708;2023-02-01T14:10:59;1.93;94.01
75153;HTU21D;63734;45.218;36.708;2023-02-01T14:13:31;1.88;94.13
75153;HTU21D;63734;45.218;36.708;2023-02-01T14:23:45;1.70;94.46
75153;HTU21D;63734;45.218;36.708;2023-02-01T14:26:24;1.62;94.17
75153;HTU21D;63734;45.218;36.708;2023-02-01T14:31:37;1.53;94.48
75153;HTU21D;63734;45.218;36.708;2023-02-01T14:34:13;1.51;94.49
75153;HTU21D;63734;45.218;36.708;2023-02-01T14:36:55;1.51;94.69
75153;HTU21D;63734;45.218;36.708;2023-02-01T14:42:27;1.41;94.81
75153;HTU21D;63734;45.218;36.708;2023-02-01T14:47:43;1.32;94.92
75153;HTU21D;63734;45.218;36.708;2023-02-01T14:55:45;1.36;95.26
75153;HTU21D;63734;45.218;36.708;2023-02-01T14:58:44;1.35;95.36
75153;HTU21D;63734;45.218;36.708;2023-02-01T15:04:18;1.39;95.76
75153;HTU21D;63734;45.218;36.708;2023-02-01T15:06:52;1.34;95.74
75153;HTU21D;63734;45.218;36.708;2023-02-01T15:09:31;1.27;95.85
75153;HTU21D;63734;45.218;36.708;2023-02-01T15:15:20;1.18;96.01
75153;HTU21D;63734;45.218;36.708;2023-02-01T15:17:58;1.14;96.01
75153;HTU21D;63734;45.218;36.708;2023-02-01T15:20:29;1.11;96.01
75153;HTU21D;63734;45.218;36.708;2023-02-01T15:23:00;1.10;96.07
75153;HTU21D;63734;45.218;36.708;2023-02-01T15:25:32;1.12;96.19
75153;HTU21D;63734;45.218;36.708;2023-02-01T15:27:58;1.11;96.20
75153;HTU21D;63734;45.218;36.708;2023-02-01T15:30:27;1.20;96.40
75153;HTU21D;63734;45.218;36.708;2023-02-01T15:41:02;1.18;96.07
75153;HTU21D;63734;45.218;36.708;2023-02-01T15:46:14;1.14;96.04
75153;HTU21D;63734;45.218;36.708;2023-02-01T15:48:48;1.20;96.04
75153;HTU21D;63734;45.218;36.708;2023-02-01T15:51:18;1.20;96.00
75153;HTU21D;63734;45.218;36.708;2023-02-01T15:53:48;1.23;96.07
75153;HTU21D;63734;45.218;36.708;2023-02-01T15:56:20;1.28;96.20
75153;HTU21D;63734;45.218;36.708;2023-02-01T15:58:53;1.34;96.06
75153;HTU21D;63734;45.218;36.708;2023-02-01T16:01:21;1.33;96.09
75153;HTU21D;63734;45.218;36.708;2023-02-01T16:03:48;1.29;96.03
75153;HTU21D;63734;45.218;36.708;2023-02-01T16:11:27;1.29;96.25
75153;HTU21D;63734;45.218;36.708;2023-02-01T16:13:54;1.28;96.30
75153;HTU21D;63734;45.218;36.708;2023-02-01T16:16:20;1.24;96.29
75153;HTU21D;63734;45.218;36.708;2023-02-01T16:18:46;1.18;96.44
75153;HTU21D;63734;45.218;36.708;2023-02-01T16:21:12;1.13;96.50
75153;HTU21D;63734;45.218;36.708;2023-02-01T16:23:38;1.10;96.60
75153;HTU21D;63734;45.218;36.708;2023-02-01T16:26:06;1.12;96.58
75153;HTU21D;63734;45.218;36.708;2023-02-01T16:28:32;1.11;96.51
75153;HTU21D;63734;45.218;36.708;2023-02-01T16:30:59;1.09;96.46
75153;HTU21D;63734;45.218;36.708;2023-02-01T16:33:26;1.06;96.49
75153;HTU21D;63734;45.218;36.708;2023-02-01T16:35:52;1.02;96.40
75153;HTU21D;63734;45.218;36.708;2023-02-01T16:38:22;0.97;96.39
75153;HTU21D;63734;45.218;36.708;2023-02-01T16:40:49;0.95;96.46
75153;HTU21D;63734;45.218;36.708;2023-02-01T16:43:23;0.90;96.45
75153;HTU21D;63734;45.218;36.708;2023-02-01T16:45:52;0.90;96.51
75153;HTU21D;63734;45.218;36.708;2023-02-01T16:48:28;0.91;96.42
75153;HTU21D;63734;45.218;36.708;2023-02-01T16:51:00;0.90;96.39
75153;HTU21D;63734;45.218;36.708;2023-02-01T16:53:28;0.88;96.32
75153;HTU21D;63734;45.218;36.708;2023-02-01T16:55:55;0.88;96.39
75153;HTU21D;63734;45.218;36.708;2023-02-01T16:58:24;0.90;96.29
75153;HTU21D;63734;45.218;36.708;2023-02-01T17:00:50;0.90;96.22
75153;HTU21D;63734;45.218;36.708;2023-02-01T17:03:18;0.87;96.23
75153;HTU21D;63734;45.218;36.708;2023-02-01T17:05:50;0.87;96.26
75153;HTU21D;63734;45.218;36.708;2023-02-01T17:08:24;0.83;96.20
75153;HTU21D;63734;45.218;36.708;2023-02-01T17:10:53;0.84;96.21
75153;HTU21D;63734;45.218;36.708;2023-02-01T17:13:21;0.82;96.11
75153;HTU21D;63734;45.218;36.708;2023-02-01T17:16:09;0.80;96.17
75153;HTU21D;63734;45.218;36.708;2023-02-01T17:18:38;0.79;96.13
75153;HTU21D;63734;45.218;36.708;2023-02-01T17:21:05;0.76;96.16
75153;HTU21D;63734;45.218;36.708;2023-02-01T17:23:33;0.78;96.20
75153;HTU21D;63734;45.218;36.708;2023-02-01T17:26:00;0.78;96.09
75153;HTU21D;63734;45.218;36.708;2023-02-01T17:28:28;0.78;96.21
75153;HTU21D;63734;45.218;36.708;2023-02-01T17:30:56;0.81;96.15
75153;HTU21D;63734;45.218;36.708;2023-02-01T17:33:31;0.80;96.09
75153;HTU21D;63734;45.218;36.708;2023-02-01T17:35:59;0.79;96.17
75153;HTU21D;63734;45.218;36.708;2023-02-01T17:38:26;0.79;96.10
75153;HTU21D;63734;45.218;36.708;2023-02-01T17:40:54;0.77;96.11
75153;HTU21D;63734;45.218;36.708;2023-02-01T17:43:25;0.78;96.18
75153;HTU21D;63734;45.218;36.708;2023-02-01T17:48:26;0.82;96.16
75153;HTU21D;63734;45.218;36.708;2023-02-01T17:50:53;0.87;96.25
75153;HTU21D;63734;45.218;36.708;2023-02-01T17:53:24;0.95;96.18
75153;HTU21D;63734;45.218;36.708;2023-02-01T17:55:51;1.05;96.11
75153;HTU21D;63734;45.218;36.708;2023-02-01T17:58:18;1.13;95.94
75153;HTU21D;63734;45.218;36.708;2023-02-01T18:00:49;1.19;95.88
75153;HTU21D;63734;45.218;36.708;2023-02-01T18:03:27;1.25;95.78
75153;HTU21D;63734;45.218;36.708;2023-02-01T18:05:57;1.26;95.75
75153;HTU21D;63734;45.218;36.708;2023-02-01T18:08:29;1.33;95.79
75153;HTU21D;63734;45.218;36.708;2023-02-01T18:11:00;1.34;95.73
75153;HTU21D;63734;45.218;36.708;2023-02-01T18:13:27;1.35;95.84
75153;HTU21D;63734;45.218;36.708;2023-02-01T18:15:54;1.40;95.79
75153;HTU21D;63734;45.218;36.708;2023-02-01T18:18:21;1.39;95.84
75153;HTU21D;63734;45.218;36.708;2023-02-01T18:20:48;1.36;95.88